Pagina principale
METAR-TAF:

METAR-TAF

Aeroporti :

Aeroporto di Parma

Parma, Italia

latitudine: 44-49-17N, longitudine: 010-17-41E, altezza: 50 m

Osservazione

Il bollettino è stato emesso 2 ore e 11 minuti fa, alle 18:50 UTC
Vento 6 kt da est
Temperature 17°C
Umidità 39%
Pressione 1017 hPa
Visibilità 10 km o più
nessuna nube inferiore a 1500 m e nessun cumulonembo

METAR: LIMP 211850Z 10006KT CAVOK 17/03 Q1017

Ora: 23:01 (21:01 UTC)

Previsione

Il bollettino è stato emesso 4 ore e 1 minuti fa, alle 17:00 UTC
Previsione valida dal 21 alle 18 UTC al 22 alle 18 UTC
Vento 6 kt da sud
Visibilità 10 km o più
Nuvoloso ad un'altezza di 6000 ft
Evoluzione graduale
dal 22 alle 14 UTC al 22 alle 16 UTC
Vento 12 kt da est
Nuvoloso ad un'altezza di 1200 ft
Nuvoloso ad un'altezza di 5000 ft
pioggia

TAF: LIMP 211700Z 2118/2218 18006KT 9999 BKN060 BECMG 2214/2216 08012KT RA BKN012 BKN050

Osservazioni e previsioni meteorologiche di più di 4000 aeroporti (messaggi METAR e TAF).

Le stazioni disponibili sono rappresentate dai dischi gialli e rossi sulla carta.

Puntare il mouse per vedere il nome della stazione.

Clicca sopra per visualizzare le osservazioni e previsioni meteorologiche.

Per cambiare la mappa : fare clic sui pulsanti verdi con una croce nera per ingrandire, il pulsante verde con un trattino per diminuire, o sulla freccia verde per le mappe adiacenti.


METAR-TAF: